sensor_id;sensor_type;location;lat;lon;timestamp;pressure;altitude;pressure_sealevel;temperature;humidity
62600;BME280;48671;48.922;2.346;2023-03-14T00:01:19;99224.53;;;12.24;68.19
62600;BME280;48671;48.922;2.346;2023-03-14T00:03:48;99222.75;;;12.24;68.40
62600;BME280;48671;48.922;2.346;2023-03-14T00:06:14;99216.91;;;12.21;68.23
62600;BME280;48671;48.922;2.346;2023-03-14T00:08:41;99200.75;;;12.15;68.28
62600;BME280;48671;48.922;2.346;2023-03-14T00:11:17;99214.31;;;12.21;68.28
62600;BME280;48671;48.922;2.346;2023-03-14T00:13:43;99208.28;;;12.20;68.43
62600;BME280;48671;48.922;2.346;2023-03-14T00:16:11;99213.38;;;12.22;68.09
62600;BME280;48671;48.922;2.346;2023-03-14T00:18:37;99186.78;;;12.16;68.14
62600;BME280;48671;48.922;2.346;2023-03-14T00:21:05;99197.63;;;12.23;67.85
62600;BME280;48671;48.922;2.346;2023-03-14T00:23:33;99194.50;;;12.18;68.26
62600;BME280;48671;48.922;2.346;2023-03-14T00:26:00;99199.59;;;12.19;68.45
62600;BME280;48671;48.922;2.346;2023-03-14T00:28:26;99190.31;;;12.15;68.72
62600;BME280;48671;48.922;2.346;2023-03-14T00:30:52;99180.94;;;12.13;69.18
62600;BME280;48671;48.922;2.346;2023-03-14T00:33:17;99189.28;;;12.05;69.61
62600;BME280;48671;48.922;2.346;2023-03-14T00:35:42;99179.41;;;11.98;69.54
62600;BME280;48671;48.922;2.346;2023-03-14T00:38:08;99189.50;;;12.02;69.69
62600;BME280;48671;48.922;2.346;2023-03-14T00:40:33;99182.63;;;12.01;69.59
62600;BME280;48671;48.922;2.346;2023-03-14T00:42:58;99179.91;;;12.03;69.59
62600;BME280;48671;48.922;2.346;2023-03-14T00:45:24;99187.00;;;12.01;69.75
62600;BME280;48671;48.922;2.346;2023-03-14T00:47:49;99164.81;;;11.95;70.28
62600;BME280;48671;48.922;2.346;2023-03-14T00:50:14;99167.19;;;11.98;70.00
62600;BME280;48671;48.922;2.346;2023-03-14T00:52:40;99166.38;;;11.98;69.67
62600;BME280;48671;48.922;2.346;2023-03-14T00:55:05;99163.66;;;11.99;70.18
62600;BME280;48671;48.922;2.346;2023-03-14T00:57:31;99174.81;;;12.01;69.74
62600;BME280;48671;48.922;2.346;2023-03-14T00:59:56;99160.94;;;12.01;69.87
62600;BME280;48671;48.922;2.346;2023-03-14T01:02:21;99173.03;;;12.02;69.76
62600;BME280;48671;48.922;2.346;2023-03-14T01:04:48;99167.09;;;12.00;70.35
62600;BME280;48671;48.922;2.346;2023-03-14T01:07:13;99165.34;;;12.00;69.96
62600;BME280;48671;48.922;2.346;2023-03-14T01:09:39;99166.16;;;12.01;69.89
62600;BME280;48671;48.922;2.346;2023-03-14T01:12:04;99158.44;;;11.99;70.07
62600;BME280;48671;48.922;2.346;2023-03-14T01:14:29;99165.44;;;11.99;70.06
62600;BME280;48671;48.922;2.346;2023-03-14T01:16:55;99161.88;;;12.00;70.16
62600;BME280;48671;48.922;2.346;2023-03-14T01:19:28;99162.81;;;11.99;70.75
62600;BME280;48671;48.922;2.346;2023-03-14T01:21:53;99168.16;;;11.97;70.18
62600;BME280;48671;48.922;2.346;2023-03-14T01:24:19;99159.25;;;12.00;70.71
62600;BME280;48671;48.922;2.346;2023-03-14T01:26:45;99153.22;;;11.99;70.63
62600;BME280;48671;48.922;2.346;2023-03-14T01:29:11;99154.38;;;11.95;70.43
62600;BME280;48671;48.922;2.346;2023-03-14T01:31:36;99149.03;;;11.97;70.77
62600;BME280;48671;48.922;2.346;2023-03-14T01:34:01;99160.00;;;12.02;70.59
62600;BME280;48671;48.922;2.346;2023-03-14T01:36:26;99159.25;;;12.00;70.79
62600;BME280;48671;48.922;2.346;2023-03-14T01:38:52;99158.34;;;12.01;71.06
62600;BME280;48671;48.922;2.346;2023-03-14T01:41:22;99158.22;;;12.02;70.93
62600;BME280;48671;48.922;2.346;2023-03-14T01:43:49;99163.78;;;11.98;71.20
62600;BME280;48671;48.922;2.346;2023-03-14T01:51:54;99164.47;;;12.00;71.40
62600;BME280;48671;48.922;2.346;2023-03-14T01:54:40;99157.72;;;11.97;71.45
62600;BME280;48671;48.922;2.346;2023-03-14T01:57:12;99155.81;;;11.99;71.47
62600;BME280;48671;48.922;2.346;2023-03-14T01:59:40;99156.88;;;11.97;71.52
62600;BME280;48671;48.922;2.346;2023-03-14T02:02:12;99170.75;;;11.97;71.71
62600;BME280;48671;48.922;2.346;2023-03-14T02:04:38;99162.31;;;11.93;71.51
62600;BME280;48671;48.922;2.346;2023-03-14T02:09:37;99164.06;;;11.93;71.49
62600;BME280;48671;48.922;2.346;2023-03-14T02:12:03;99160.22;;;11.99;71.28
62600;BME280;48671;48.922;2.346;2023-03-14T02:14:34;99165.84;;;11.92;72.21
62600;BME280;48671;48.922;2.346;2023-03-14T02:17:03;99172.63;;;11.95;71.60
62600;BME280;48671;48.922;2.346;2023-03-14T02:22:45;99166.66;;;11.93;72.53
62600;BME280;48671;48.922;2.346;2023-03-14T02:25:21;99169.19;;;11.94;72.38
62600;BME280;48671;48.922;2.346;2023-03-14T02:27:49;99158.03;;;11.92;72.12
62600;BME280;48671;48.922;2.346;2023-03-14T02:30:20;99164.69;;;11.97;72.21
62600;BME280;48671;48.922;2.346;2023-03-14T02:32:49;99164.81;;;11.95;72.45
62600;BME280;48671;48.922;2.346;2023-03-14T02:35:22;99166.88;;;11.90;72.39
62600;BME280;48671;48.922;2.346;2023-03-14T02:38:00;99174.28;;;11.96;72.19
62600;BME280;48671;48.922;2.346;2023-03-14T02:40:28;99164.81;;;11.95;72.70
62600;BME280;48671;48.922;2.346;2023-03-14T02:42:53;99163.16;;;11.94;72.80
62600;BME280;48671;48.922;2.346;2023-03-14T02:47:52;99163.03;;;11.95;73.35
62600;BME280;48671;48.922;2.346;2023-03-14T02:50:22;99163.16;;;11.94;73.22
62600;BME280;48671;48.922;2.346;2023-03-14T02:52:50;99153.63;;;11.93;73.46
62600;BME280;48671;48.922;2.346;2023-03-14T02:55:23;99155.53;;;11.91;73.61
62600;BME280;48671;48.922;2.346;2023-03-14T02:57:49;99156.47;;;11.90;74.17
62600;BME280;48671;48.922;2.346;2023-03-14T03:00:15;99151.75;;;11.82;74.63
62600;BME280;48671;48.922;2.346;2023-03-14T03:02:40;99150.50;;;11.75;74.48
62600;BME280;48671;48.922;2.346;2023-03-14T03:05:06;99161.56;;;11.79;75.04
62600;BME280;48671;48.922;2.346;2023-03-14T03:07:31;99157.50;;;11.75;74.57
62600;BME280;48671;48.922;2.346;2023-03-14T03:09:57;99149.78;;;11.73;75.94
62600;BME280;48671;48.922;2.346;2023-03-14T03:12:22;99172.31;;;11.74;75.48
62600;BME280;48671;48.922;2.346;2023-03-14T03:14:47;99164.56;;;11.72;75.40
62600;BME280;48671;48.922;2.346;2023-03-14T03:17:13;99168.13;;;11.71;75.36
62600;BME280;48671;48.922;2.346;2023-03-14T03:19:38;99161.56;;;11.66;75.73
62600;BME280;48671;48.922;2.346;2023-03-14T03:22:03;99163.41;;;11.64;75.86
62600;BME280;48671;48.922;2.346;2023-03-14T03:24:29;99172.91;;;11.65;76.03
62600;BME280;48671;48.922;2.346;2023-03-14T03:26:54;99170.31;;;11.65;75.66
62600;BME280;48671;48.922;2.346;2023-03-14T03:29:19;99181.25;;;11.70;76.44
62600;BME280;48671;48.922;2.346;2023-03-14T03:31:45;99167.81;;;11.63;76.44
62600;BME280;48671;48.922;2.346;2023-03-14T03:34:11;99178.00;;;11.66;77.23
62600;BME280;48671;48.922;2.346;2023-03-14T03:36:37;99179.16;;;11.62;77.24
62600;BME280;48671;48.922;2.346;2023-03-14T03:39:03;99180.31;;;11.58;77.35
62600;BME280;48671;48.922;2.346;2023-03-14T03:41:29;99171.25;;;11.51;78.04
62600;BME280;48671;48.922;2.346;2023-03-14T03:43:54;99176.22;;;11.54;77.58
62600;BME280;48671;48.922;2.346;2023-03-14T03:46:19;99194.25;;;11.57;77.51
62600;BME280;48671;48.922;2.346;2023-03-14T03:48:45;99187.59;;;11.53;79.16
62600;BME280;48671;48.922;2.346;2023-03-14T03:51:15;99191.34;;;11.49;78.32
62600;BME280;48671;48.922;2.346;2023-03-14T03:53:42;99191.34;;;11.49;78.08
62600;BME280;48671;48.922;2.346;2023-03-14T03:56:08;99189.78;;;11.46;79.20
62600;BME280;48671;48.922;2.346;2023-03-14T03:58:34;99193.00;;;11.50;78.34
62600;BME280;48671;48.922;2.346;2023-03-14T04:00:59;99186.66;;;11.54;78.69
62600;BME280;48671;48.922;2.346;2023-03-14T04:03:24;99191.66;;;11.57;78.81
62600;BME280;48671;48.922;2.346;2023-03-14T04:06:04;99194.25;;;11.57;78.13
62600;BME280;48671;48.922;2.346;2023-03-14T04:08:30;99190.94;;;11.55;78.22
62600;BME280;48671;48.922;2.346;2023-03-14T04:11:00;99198.34;;;11.61;78.04
62600;BME280;48671;48.922;2.346;2023-03-14T04:13:26;99205.34;;;11.61;78.73
62600;BME280;48671;48.922;2.346;2023-03-14T04:15:53;99202.63;;;11.62;78.48
62600;BME280;48671;48.922;2.346;2023-03-14T04:18:18;99201.16;;;11.58;78.54
62600;BME280;48671;48.922;2.346;2023-03-14T04:20:44;99204.59;;;11.59;78.48
62600;BME280;48671;48.922;2.346;2023-03-14T04:23:09;99213.22;;;11.59;80.33
62600;BME280;48671;48.922;2.346;2023-03-14T04:25:35;99215.09;;;11.57;79.16
62600;BME280;48671;48.922;2.346;2023-03-14T04:28:00;99221.38;;;11.55;79.10
62600;BME280;48671;48.922;2.346;2023-03-14T04:30:26;99223.22;;;11.53;80.44
62600;BME280;48671;48.922;2.346;2023-03-14T04:32:52;99225.63;;;11.56;79.60
62600;BME280;48671;48.922;2.346;2023-03-14T04:35:17;99230.00;;;11.55;79.55
62600;BME280;48671;48.922;2.346;2023-03-14T04:37:42;99230.41;;;11.49;79.25
62600;BME280;48671;48.922;2.346;2023-03-14T04:40:10;99252.44;;;11.58;79.67
62600;BME280;48671;48.922;2.346;2023-03-14T04:42:36;99251.75;;;11.54;79.26
62600;BME280;48671;48.922;2.346;2023-03-14T04:45:02;99250.94;;;11.54;79.94
62600;BME280;48671;48.922;2.346;2023-03-14T04:47:28;99266.38;;;11.57;79.72
62600;BME280;48671;48.922;2.346;2023-03-14T04:49:53;99271.13;;;11.50;81.51
62600;BME280;48671;48.922;2.346;2023-03-14T04:52:19;99292.72;;;11.52;79.76
62600;BME280;48671;48.922;2.346;2023-03-14T04:54:44;99308.13;;;11.42;79.62
62600;BME280;48671;48.922;2.346;2023-03-14T04:57:09;99337.59;;;11.43;79.68
62600;BME280;48671;48.922;2.346;2023-03-14T04:59:35;99351.84;;;11.37;78.79
62600;BME280;48671;48.922;2.346;2023-03-14T05:02:00;99359.00;;;11.34;78.16
62600;BME280;48671;48.922;2.346;2023-03-14T05:04:25;99375.31;;;11.23;77.77
62600;BME280;48671;48.922;2.346;2023-03-14T05:06:51;99393.91;;;11.17;77.06
62600;BME280;48671;48.922;2.346;2023-03-14T05:09:16;99407.22;;;11.12;75.58
62600;BME280;48671;48.922;2.346;2023-03-14T05:11:42;99410.47;;;11.01;74.77
62600;BME280;48671;48.922;2.346;2023-03-14T05:14:07;99417.94;;;10.93;74.73
62600;BME280;48671;48.922;2.346;2023-03-14T05:16:32;99427.88;;;10.87;74.25
62600;BME280;48671;48.922;2.346;2023-03-14T05:18:58;99428.34;;;10.79;74.03
62600;BME280;48671;48.922;2.346;2023-03-14T05:21:23;99447.81;;;10.72;72.72
62600;BME280;48671;48.922;2.346;2023-03-14T05:23:49;99452.47;;;10.67;73.25
62600;BME280;48671;48.922;2.346;2023-03-14T05:26:14;99470.22;;;10.60;72.59
62600;BME280;48671;48.922;2.346;2023-03-14T05:28:41;99478.38;;;10.54;72.61
62600;BME280;48671;48.922;2.346;2023-03-14T05:31:08;99492.72;;;10.45;71.85
62600;BME280;48671;48.922;2.346;2023-03-14T05:33:33;99502.22;;;10.46;72.27
62600;BME280;48671;48.922;2.346;2023-03-14T05:35:58;99511.22;;;10.41;71.39
62600;BME280;48671;48.922;2.346;2023-03-14T05:38:24;99511.38;;;10.38;71.01
62600;BME280;48671;48.922;2.346;2023-03-14T05:40:49;99523.72;;;10.34;71.28
62600;BME280;48671;48.922;2.346;2023-03-14T05:43:14;99543.53;;;10.37;71.21
62600;BME280;48671;48.922;2.346;2023-03-14T05:45:42;99541.94;;;10.34;71.30
62600;BME280;48671;48.922;2.346;2023-03-14T05:48:07;99542.75;;;10.35;70.98
62600;BME280;48671;48.922;2.346;2023-03-14T05:50:33;99559.28;;;10.34;70.49
62600;BME280;48671;48.922;2.346;2023-03-14T05:52:58;99562.78;;;10.32;70.44
62600;BME280;48671;48.922;2.346;2023-03-14T05:55:24;99581.00;;;10.32;70.06
62600;BME280;48671;48.922;2.346;2023-03-14T05:57:50;99591.56;;;10.29;70.56
62600;BME280;48671;48.922;2.346;2023-03-14T06:00:15;99607.16;;;10.29;70.22
62600;BME280;48671;48.922;2.346;2023-03-14T06:02:41;99610.94;;;10.24;69.97
62600;BME280;48671;48.922;2.346;2023-03-14T06:05:07;99627.41;;;10.23;69.36
62600;BME280;48671;48.922;2.346;2023-03-14T06:07:32;99639.59;;;10.22;69.13
62600;BME280;48671;48.922;2.346;2023-03-14T06:09:57;99635.56;;;10.17;69.38
62600;BME280;48671;48.922;2.346;2023-03-14T06:12:23;99651.25;;;10.15;68.38
62600;BME280;48671;48.922;2.346;2023-03-14T06:14:49;99661.75;;;10.14;67.51
62600;BME280;48671;48.922;2.346;2023-03-14T06:17:15;99670.84;;;10.05;66.25
62600;BME280;48671;48.922;2.346;2023-03-14T06:19:41;99681.31;;;10.03;66.88
62600;BME280;48671;48.922;2.346;2023-03-14T06:22:06;99681.31;;;9.88;66.95
62600;BME280;48671;48.922;2.346;2023-03-14T06:24:31;99705.22;;;9.94;66.55
62600;BME280;48671;48.922;2.346;2023-03-14T06:26:57;99704.50;;;9.91;66.77
62600;BME280;48671;48.922;2.346;2023-03-14T06:29:22;99731.25;;;9.93;65.87
62600;BME280;48671;48.922;2.346;2023-03-14T06:31:47;99728.13;;;9.86;66.03
62600;BME280;48671;48.922;2.346;2023-03-14T06:34:13;99738.47;;;9.88;65.67
62600;BME280;48671;48.922;2.346;2023-03-14T06:36:39;99757.56;;;9.87;64.97
62600;BME280;48671;48.922;2.346;2023-03-14T06:39:04;99750.84;;;9.82;64.65
62600;BME280;48671;48.922;2.346;2023-03-14T06:41:30;99771.53;;;9.84;64.47
62600;BME280;48671;48.922;2.346;2023-03-14T06:43:55;99776.97;;;9.79;64.10
62600;BME280;48671;48.922;2.346;2023-03-14T06:46:20;99788.28;;;9.78;64.64
62600;BME280;48671;48.922;2.346;2023-03-14T06:48:46;99800.34;;;9.79;64.68
62600;BME280;48671;48.922;2.346;2023-03-14T06:51:11;99821.97;;;9.80;64.23
62600;BME280;48671;48.922;2.346;2023-03-14T06:53:36;99828.94;;;9.79;63.53
62600;BME280;48671;48.922;2.346;2023-03-14T06:56:02;99834.22;;;9.78;63.32
62600;BME280;48671;48.922;2.346;2023-03-14T06:58:27;99832.44;;;9.78;63.25
62600;BME280;48671;48.922;2.346;2023-03-14T07:00:53;99836.97;;;9.75;63.71
62600;BME280;48671;48.922;2.346;2023-03-14T07:03:19;99858.63;;;9.74;63.41
62600;BME280;48671;48.922;2.346;2023-03-14T07:05:45;99857.78;;;9.73;63.64
62600;BME280;48671;48.922;2.346;2023-03-14T07:08:10;99872.56;;;9.73;63.59
62600;BME280;48671;48.922;2.346;2023-03-14T07:10:36;99887.22;;;9.74;63.72
62600;BME280;48671;48.922;2.346;2023-03-14T07:13:02;99877.66;;;9.74;63.29
62600;BME280;48671;48.922;2.346;2023-03-14T07:15:27;99885.44;;;9.74;62.89
62600;BME280;48671;48.922;2.346;2023-03-14T07:17:52;99894.94;;;9.75;62.88
62600;BME280;48671;48.922;2.346;2023-03-14T07:20:18;99894.94;;;9.75;61.57
62600;BME280;48671;48.922;2.346;2023-03-14T07:22:43;99905.69;;;9.68;61.60
62600;BME280;48671;48.922;2.346;2023-03-14T07:25:09;99922.13;;;9.68;62.44
62600;BME280;48671;48.922;2.346;2023-03-14T07:27:37;99934.97;;;9.71;61.65
62600;BME280;48671;48.922;2.346;2023-03-14T07:30:03;99927.38;;;9.67;60.55
62600;BME280;48671;48.922;2.346;2023-03-14T07:32:29;99945.38;;;9.71;61.07
62600;BME280;48671;48.922;2.346;2023-03-14T07:34:54;99948.84;;;9.70;60.92
62600;BME280;48671;48.922;2.346;2023-03-14T07:37:19;99966.75;;;9.76;60.19
62600;BME280;48671;48.922;2.346;2023-03-14T07:39:45;99970.88;;;9.80;60.01
62600;BME280;48671;48.922;2.346;2023-03-14T07:42:10;99974.38;;;9.98;60.22
62600;BME280;48671;48.922;2.346;2023-03-14T07:44:36;99989.44;;;10.45;59.51
62600;BME280;48671;48.922;2.346;2023-03-14T07:47:01;99981.16;;;10.89;58.77
62600;BME280;48671;48.922;2.346;2023-03-14T07:49:27;99988.03;;;11.23;57.39
62600;BME280;48671;48.922;2.346;2023-03-14T07:51:52;99990.06;;;11.50;54.82
62600;BME280;48671;48.922;2.346;2023-03-14T07:54:17;99996.41;;;11.78;56.67
62600;BME280;48671;48.922;2.346;2023-03-14T07:56:43;99995.44;;;12.26;54.84
62600;BME280;48671;48.922;2.346;2023-03-14T07:59:08;100007.09;;;12.65;53.31
62600;BME280;48671;48.922;2.346;2023-03-14T08:01:34;100024.41;;;12.82;52.28
62600;BME280;48671;48.922;2.346;2023-03-14T08:03:59;100031.03;;;13.02;52.45
62600;BME280;48671;48.922;2.346;2023-03-14T08:06:25;100034.91;;;13.39;51.75
62600;BME280;48671;48.922;2.346;2023-03-14T08:08:50;100036.56;;;13.69;52.02
62600;BME280;48671;48.922;2.346;2023-03-14T08:11:15;100045.75;;;14.03;50.91
62600;BME280;48671;48.922;2.346;2023-03-14T08:13:41;100045.38;;;14.22;48.71
62600;BME280;48671;48.922;2.346;2023-03-14T08:16:06;100046.25;;;14.22;48.14
62600;BME280;48671;48.922;2.346;2023-03-14T08:18:32;100059.53;;;14.32;48.41
62600;BME280;48671;48.922;2.346;2023-03-14T08:20:57;100060.22;;;14.48;49.31
62600;BME280;48671;48.922;2.346;2023-03-14T08:23:23;100068.31;;;14.45;47.87
62600;BME280;48671;48.922;2.346;2023-03-14T08:25:49;100077.81;;;14.46;47.35
62600;BME280;48671;48.922;2.346;2023-03-14T08:28:16;100074.91;;;14.24;47.80
62600;BME280;48671;48.922;2.346;2023-03-14T08:30:41;100086.91;;;14.14;48.05
62600;BME280;48671;48.922;2.346;2023-03-14T08:33:06;100078.03;;;14.16;46.43
62600;BME280;48671;48.922;2.346;2023-03-14T08:35:32;100095.84;;;14.24;48.38
62600;BME280;48671;48.922;2.346;2023-03-14T08:37:57;100100.31;;;14.22;46.48
62600;BME280;48671;48.922;2.346;2023-03-14T08:40:22;100116.00;;;13.95;47.61
62600;BME280;48671;48.922;2.346;2023-03-14T08:42:48;100113.00;;;13.72;47.98
62600;BME280;48671;48.922;2.346;2023-03-14T08:45:15;100098.72;;;13.49;48.87
62600;BME280;48671;48.922;2.346;2023-03-14T08:47:41;100111.03;;;13.33;50.02
62600;BME280;48671;48.922;2.346;2023-03-14T08:50:08;100123.47;;;13.13;48.70
62600;BME280;48671;48.922;2.346;2023-03-14T08:52:34;100118.25;;;13.13;49.45
62600;BME280;48671;48.922;2.346;2023-03-14T08:54:59;100126.19;;;13.12;49.90
62600;BME280;48671;48.922;2.346;2023-03-14T08:57:25;100125.50;;;13.24;51.08
62600;BME280;48671;48.922;2.346;2023-03-14T08:59:56;100135.69;;;13.43;51.87
62600;BME280;48671;48.922;2.346;2023-03-14T09:02:22;100130.66;;;13.54;50.45
62600;BME280;48671;48.922;2.346;2023-03-14T09:04:49;100138.28;;;13.43;48.89
62600;BME280;48671;48.922;2.346;2023-03-14T09:07:15;100141.22;;;13.23;50.53
62600;BME280;48671;48.922;2.346;2023-03-14T09:09:41;100145.16;;;12.85;49.25
62600;BME280;48671;48.922;2.346;2023-03-14T09:12:06;100139.38;;;12.49;50.51
62600;BME280;48671;48.922;2.346;2023-03-14T09:14:31;100144.63;;;12.17;51.68
62600;BME280;48671;48.922;2.346;2023-03-14T09:16:57;100169.00;;;12.00;52.10
62600;BME280;48671;48.922;2.346;2023-03-14T09:19:23;100178.34;;;11.87;53.20
62600;BME280;48671;48.922;2.346;2023-03-14T09:21:48;100181.91;;;11.68;53.99
62600;BME280;48671;48.922;2.346;2023-03-14T09:24:14;100197.09;;;11.60;55.05
62600;BME280;48671;48.922;2.346;2023-03-14T09:26:39;100205.53;;;11.48;56.00
62600;BME280;48671;48.922;2.346;2023-03-14T09:29:05;100232.94;;;11.38;56.28
62600;BME280;48671;48.922;2.346;2023-03-14T09:31:30;100224.38;;;11.18;56.42
62600;BME280;48671;48.922;2.346;2023-03-14T09:33:56;100232.09;;;11.02;56.72
62600;BME280;48671;48.922;2.346;2023-03-14T09:36:21;100239.50;;;10.93;57.90
62600;BME280;48671;48.922;2.346;2023-03-14T09:38:46;100257.38;;;10.82;58.69
62600;BME280;48671;48.922;2.346;2023-03-14T09:41:16;100269.75;;;10.76;58.63
62600;BME280;48671;48.922;2.346;2023-03-14T09:43:44;100280.59;;;10.67;58.98
62600;BME280;48671;48.922;2.346;2023-03-14T09:46:11;100283.97;;;10.69;59.59
62600;BME280;48671;48.922;2.346;2023-03-14T09:48:37;100274.00;;;10.79;59.05
62600;BME280;48671;48.922;2.346;2023-03-14T09:51:11;100285.28;;;10.97;60.07
62600;BME280;48671;48.922;2.346;2023-03-14T09:53:44;100295.69;;;11.16;59.47
62600;BME280;48671;48.922;2.346;2023-03-14T09:56:21;100291.19;;;11.37;59.52
62600;BME280;48671;48.922;2.346;2023-03-14T09:59:00;100308.19;;;11.44;58.57
62600;BME280;48671;48.922;2.346;2023-03-14T10:01:29;100345.13;;;11.35;57.62
62600;BME280;48671;48.922;2.346;2023-03-14T10:03:56;100327.41;;;11.05;57.89
62600;BME280;48671;48.922;2.346;2023-03-14T10:06:28;100327.44;;;10.86;58.07
62600;BME280;48671;48.922;2.346;2023-03-14T10:08:54;100342.06;;;10.70;58.81
62600;BME280;48671;48.922;2.346;2023-03-14T10:11:20;100350.97;;;10.64;58.95
62600;BME280;48671;48.922;2.346;2023-03-14T10:14:09;100343.25;;;10.63;58.58
62600;BME280;48671;48.922;2.346;2023-03-14T10:16:45;100351.63;;;10.69;59.37
62600;BME280;48671;48.922;2.346;2023-03-14T10:19:13;100362.31;;;10.82;58.84
62600;BME280;48671;48.922;2.346;2023-03-14T10:21:44;100362.81;;;10.90;58.52
62600;BME280;48671;48.922;2.346;2023-03-14T10:26:53;100370.78;;;11.06;57.63
62600;BME280;48671;48.922;2.346;2023-03-14T10:29:19;100370.19;;;11.18;58.01
62600;BME280;48671;48.922;2.346;2023-03-14T10:31:53;100376.69;;;11.46;57.91
62600;BME280;48671;48.922;2.346;2023-03-14T10:34:25;100375.34;;;11.73;56.42
62600;BME280;48671;48.922;2.346;2023-03-14T10:36:59;100375.88;;;11.99;57.15
62600;BME280;48671;48.922;2.346;2023-03-14T10:39:37;100389.13;;;12.29;53.49
62600;BME280;48671;48.922;2.346;2023-03-14T10:42:16;100385.66;;;12.46;52.78
62600;BME280;48671;48.922;2.346;2023-03-14T10:44:44;100387.63;;;12.58;54.44
62600;BME280;48671;48.922;2.346;2023-03-14T10:47:18;100375.13;;;12.81;49.62
62600;BME280;48671;48.922;2.346;2023-03-14T10:49:44;100398.00;;;13.09;52.26
62600;BME280;48671;48.922;2.346;2023-03-14T10:52:29;100390.53;;;13.34;50.70
62600;BME280;48671;48.922;2.346;2023-03-14T10:54:59;100400.50;;;13.28;50.90
62600;BME280;48671;48.922;2.346;2023-03-14T10:57:27;100390.28;;;13.39;49.92
62600;BME280;48671;48.922;2.346;2023-03-14T10:59:55;100395.34;;;13.42;47.16
62600;BME280;48671;48.922;2.346;2023-03-14T11:02:36;100407.78;;;13.37;47.20
62600;BME280;48671;48.922;2.346;2023-03-14T11:05:18;100404.28;;;13.38;47.75
62600;BME280;48671;48.922;2.346;2023-03-14T11:07:46;100414.47;;;13.58;48.43
62600;BME280;48671;48.922;2.346;2023-03-14T11:16:09;100413.16;;;13.81;44.20
62600;BME280;48671;48.922;2.346;2023-03-14T11:19:03;100416.31;;;14.02;47.52
62600;BME280;48671;48.922;2.346;2023-03-14T11:21:43;100430.72;;;14.40;46.71
62600;BME280;48671;48.922;2.346;2023-03-14T11:25:21;100424.78;;;14.66;45.27
62600;BME280;48671;48.922;2.346;2023-03-14T11:27:23;100440.25;;;14.85;46.27
62600;BME280;48671;48.922;2.346;2023-03-14T11:30:17;100432.56;;;15.11;45.35
62600;BME280;48671;48.922;2.346;2023-03-14T11:33:13;100435.84;;;14.86;44.70
62600;BME280;48671;48.922;2.346;2023-03-14T11:36:03;100430.41;;;14.74;46.01
62600;BME280;48671;48.922;2.346;2023-03-14T11:41:39;100435.91;;;14.70;43.91
62600;BME280;48671;48.922;2.346;2023-03-14T11:44:18;100450.13;;;14.66;43.30
62600;BME280;48671;48.922;2.346;2023-03-14T11:46:52;100447.41;;;14.53;44.67
62600;BME280;48671;48.922;2.346;2023-03-14T11:49:30;100455.19;;;14.69;43.79
62600;BME280;48671;48.922;2.346;2023-03-14T11:52:01;100452.56;;;14.83;44.02
62600;BME280;48671;48.922;2.346;2023-03-14T11:54:47;100449.22;;;14.95;41.83
62600;BME280;48671;48.922;2.346;2023-03-14T11:57:20;100449.94;;;15.26;43.22
62600;BME280;48671;48.922;2.346;2023-03-14T12:00:21;100459.81;;;15.50;41.12
62600;BME280;48671;48.922;2.346;2023-03-14T12:11:39;100469.81;;;15.02;39.40
62600;BME280;48671;48.922;2.346;2023-03-14T12:14:24;100480.53;;;14.97;39.09
62600;BME280;48671;48.922;2.346;2023-03-14T12:16:55;100494.50;;;15.26;38.73
62600;BME280;48671;48.922;2.346;2023-03-14T12:21:55;100479.16;;;15.34;38.32
62600;BME280;48671;48.922;2.346;2023-03-14T12:24:26;100484.03;;;15.12;38.22
62600;BME280;48671;48.922;2.346;2023-03-14T12:26:56;100488.88;;;14.89;38.19
62600;BME280;48671;48.922;2.346;2023-03-14T12:29:22;100487.09;;;14.75;39.22
62600;BME280;48671;48.922;2.346;2023-03-14T12:32:20;100500.59;;;14.54;39.24
62600;BME280;48671;48.922;2.346;2023-03-14T12:34:40;100485.84;;;14.37;38.09
62600;BME280;48671;48.922;2.346;2023-03-14T12:37:14;100498.91;;;14.22;39.23
62600;BME280;48671;48.922;2.346;2023-03-14T12:45:32;100481.00;;;15.04;39.59
62600;BME280;48671;48.922;2.346;2023-03-14T12:48:21;100489.03;;;15.58;38.80
62600;BME280;48671;48.922;2.346;2023-03-14T12:56:43;100498.59;;;16.00;36.67
62600;BME280;48671;48.922;2.346;2023-03-14T12:59:30;100492.69;;;15.55;37.61
62600;BME280;48671;48.922;2.346;2023-03-14T13:04:35;100479.31;;;15.17;37.37
62600;BME280;48671;48.922;2.346;2023-03-14T13:07:03;100504.22;;;14.95;36.19
62600;BME280;48671;48.922;2.346;2023-03-14T13:11:55;100555.69;;;14.52;40.91
62600;BME280;48671;48.922;2.346;2023-03-14T13:14:22;100565.28;;;13.90;43.18
62600;BME280;48671;48.922;2.346;2023-03-14T13:16:48;100579.06;;;13.27;47.50
62600;BME280;48671;48.922;2.346;2023-03-14T13:19:26;100583.91;;;12.65;50.99
62600;BME280;48671;48.922;2.346;2023-03-14T13:22:02;100571.00;;;12.08;53.04
62600;BME280;48671;48.922;2.346;2023-03-14T13:24:28;100568.81;;;11.61;56.52
62600;BME280;48671;48.922;2.346;2023-03-14T13:26:56;100585.78;;;11.31;55.63
62600;BME280;48671;48.922;2.346;2023-03-14T13:29:24;100582.50;;;11.07;56.24
62600;BME280;48671;48.922;2.346;2023-03-14T13:31:55;100600.25;;;10.97;57.81
62600;BME280;48671;48.922;2.346;2023-03-14T13:34:32;100612.69;;;10.90;58.82
62600;BME280;48671;48.922;2.346;2023-03-14T13:36:58;100608.69;;;10.82;59.28
62600;BME280;48671;48.922;2.346;2023-03-14T13:39:25;100628.03;;;10.76;59.66
62600;BME280;48671;48.922;2.346;2023-03-14T13:41:59;100625.34;;;10.77;58.43
62600;BME280;48671;48.922;2.346;2023-03-14T13:44:33;100640.94;;;10.79;59.89
62600;BME280;48671;48.922;2.346;2023-03-14T13:47:01;100645.00;;;10.85;60.90
62600;BME280;48671;48.922;2.346;2023-03-14T13:49:28;100655.53;;;10.82;61.61
62600;BME280;48671;48.922;2.346;2023-03-14T13:51:57;100639.09;;;10.81;59.83
62600;BME280;48671;48.922;2.346;2023-03-14T13:54:25;100637.44;;;10.78;59.93
62600;BME280;48671;48.922;2.346;2023-03-14T13:57:02;100636.94;;;10.91;61.20